Pagina principale
METAR-TAF:

METAR-TAF

Aeroporti :

Aeroporto di Cuneo-Levaldigi

Cuneo, Italia

latitudine: 44-32-47N, longitudine: 007-37-20E, altezza: 386 m

Osservazione

Il bollettino è stato emesso 1 ora e 12 minuti fa, alle 09:50 UTC
Vento 6 kt da nord/nord-ovest, variando fra ovest/nord-ovest e nord
Temperature 16°C
Umidità 77%
Pressione 1020 hPa
Visibilità 10 km o più
Nuvoloso ad un'altezza di 4000 ft

METAR: LIMZ 150950Z 34006KT 300V010 9999 BKN040 16/12 Q1020

Ora: 13:02 (11:02 UTC)

Previsione

Il bollettino è stato emesso 6 ore e 2 minuti fa, alle 05:00 UTC
Previsione valida dal 15 alle 06 UTC al 16 alle 06 UTC
Vento 5 kt da direzioni variabili
Visibilità 10 km o più
Nubi sparse ad un'altezza di 4000 ft
Probabilità 40% :
Temporaneamente
dal 15 alle 06 UTC al 15 alle 18 UTC
Visibilità: 4000 m
rovesci di pioggia

TAF: LIMZ 150500Z 1506/1606 VRB05KT 9999 SCT040 PROB40 TEMPO 1506/1518 4000 SHRA

Osservazioni e previsioni meteorologiche di più di 4000 aeroporti (messaggi METAR e TAF).

Le stazioni disponibili sono rappresentate dai dischi gialli e rossi sulla carta.

Puntare il mouse per vedere il nome della stazione.

Clicca sopra per visualizzare le osservazioni e previsioni meteorologiche.

Per cambiare la mappa : fare clic sui pulsanti verdi con una croce nera per ingrandire, il pulsante verde con un trattino per diminuire, o sulla freccia verde per le mappe adiacenti.


METAR-TAF: